金門航空站 - ATIS

METAR RCBS 190030Z 01007KT 6000 FEW020 SCT045 BKN200 16/11 Q1023 NOSIG RMK A3022(A)=

站台狀態:Online
最後更新:2019-01-19 08:30:01